Time;durP1;ratioP1;P1;durP2;ratioP2;P2;SDS_P1;SDS_P2;PMS_P1;PMS_P2;Temp;Humidity;BMP_temperature;BMP_pressure;BME280_temperature;BME280_humidity;BME280_pressure;Samples;Min_cycle;Max_cycle;Signal;HPM_P1;HPM_P2
2020/12/09 00:01:33;;;;;;;85.75;41.67;;;0.00;98.00;;;;;;5005203;28;20089;-71
2020/12/09 00:04:00;;;;;;;79.85;43.92;;;0.00;98.00;;;;;;5007240;28;20021;-69
2020/12/09 00:06:39;;;;;;;65.88;36.50;;;0.00;98.00;;;;;;5006264;28;20096;-69
2020/12/09 00:09:06;;;;;;;70.78;37.42;;;0.00;98.00;;;;;;5011549;28;20029;-70
2020/12/09 00:11:38;;;;;;;67.82;36.17;;;0.00;98.00;;;;;;5013482;28;20056;-70
2020/12/09 00:14:05;;;;;;;75.55;38.08;;;-0.10;98.00;;;;;;5018843;28;20022;-70
2020/12/09 00:16:32;;;;;;;74.20;37.65;;;-0.10;98.00;;;;;;5012358;28;20326;-70
2020/12/09 00:18:59;;;;;;;63.83;36.53;;;0.00;98.00;;;;;;5016786;28;20065;-70
2020/12/09 00:21:25;;;;;;;71.28;36.92;;;0.00;98.00;;;;;;5017508;28;20071;-69
2020/12/09 00:23:57;;;;;;;61.95;36.22;;;0.00;98.00;;;;;;5016543;28;20037;-69
2020/12/09 00:26:25;;;;;;;65.90;35.10;;;0.00;98.00;;;;;;5017620;28;20022;-69
2020/12/09 00:28:52;;;;;;;62.70;34.40;;;0.00;98.00;;;;;;5017388;28;20113;-68
2020/12/09 00:31:21;;;;;;;62.50;34.70;;;0.00;98.00;;;;;;5015762;28;20026;-69
2020/12/09 00:33:47;;;;;;;54.88;32.70;;;0.00;98.00;;;;;;5015925;28;20026;-69
2020/12/09 00:36:14;;;;;;;64.05;34.72;;;0.00;98.00;;;;;;5017751;28;20026;-69
2020/12/09 00:38:40;;;;;;;61.80;34.42;;;0.00;98.00;;;;;;5017639;28;20092;-69
2020/12/09 00:41:26;;;;;;;59.58;32.75;;;0.00;98.00;;;;;;5017282;28;20025;-70
2020/12/09 00:43:52;;;;;;;55.35;31.88;;;0.00;98.00;;;;;;5017097;28;20036;-69
2020/12/09 00:46:24;;;;;;;66.72;35.08;;;-0.10;98.00;;;;;;5015925;28;20300;-70
2020/12/09 00:48:50;;;;;;;57.65;32.58;;;0.00;98.00;;;;;;5016774;28;20041;-70
2020/12/09 00:51:19;;;;;;;59.53;33.42;;;0.00;98.00;;;;;;5017314;28;20370;-70
2020/12/09 00:53:45;;;;;;;55.28;32.42;;;0.00;98.00;;;;;;5016677;28;20018;-70
2020/12/09 00:56:11;;;;;;;59.35;33.80;;;0.00;98.00;;;;;;5017095;28;20026;-69
2020/12/09 00:58:38;;;;;;;59.33;33.17;;;0.00;98.00;;;;;;5016103;28;20034;-69
2020/12/09 01:01:05;;;;;;;52.70;29.77;;;0.00;98.00;;;;;;5013812;28;20615;-69
2020/12/09 01:03:31;;;;;;;55.33;31.55;;;0.00;98.00;;;;;;5013215;28;20116;-69
2020/12/09 01:05:57;;;;;;;61.47;34.63;;;0.10;98.00;;;;;;5016488;28;20097;-69
2020/12/09 01:08:23;;;;;;;55.97;31.52;;;0.10;98.00;;;;;;5016711;28;20053;-69
2020/12/09 01:10:49;;;;;;;61.40;34.08;;;0.10;98.00;;;;;;5017078;28;20469;-69
2020/12/09 01:13:18;;;;;;;61.90;32.22;;;0.10;98.00;;;;;;5016304;28;20026;-69
2020/12/09 01:15:46;;;;;;;59.78;34.22;;;0.10;98.00;;;;;;5016065;28;20095;-69
2020/12/09 01:18:12;;;;;;;59.40;35.00;;;0.00;98.00;;;;;;5016231;28;20049;-69
2020/12/09 01:20:38;;;;;;;68.00;33.95;;;0.00;98.00;;;;;;5016484;28;20030;-69
2020/12/09 01:23:04;;;;;;;60.83;32.90;;;0.00;98.00;;;;;;5016729;28;20378;-68
2020/12/09 01:25:30;;;;;;;57.72;33.17;;;0.00;98.00;;;;;;5011028;28;20019;-70
2020/12/09 01:28:03;;;;;;;57.45;30.75;;;0.10;98.00;;;;;;5015472;28;20297;-69
2020/12/09 01:30:29;;;;;;;59.20;30.65;;;0.10;98.00;;;;;;5015801;28;20097;-69
2020/12/09 01:32:56;;;;;;;50.10;27.83;;;0.10;98.00;;;;;;5015677;28;20164;-71
2020/12/09 01:35:22;;;;;;;48.35;28.15;;;0.10;98.00;;;;;;5016270;28;20023;-70
2020/12/09 01:37:48;;;;;;;50.30;29.17;;;0.20;98.00;;;;;;5015858;28;20026;-69
2020/12/09 01:40:14;;;;;;;53.60;27.90;;;0.20;98.00;;;;;;5016815;28;20030;-69
2020/12/09 01:42:40;;;;;;;50.15;27.02;;;0.30;98.00;;;;;;5016467;28;20030;-68
2020/12/09 01:45:06;;;;;;;41.85;25.95;;;0.30;98.00;;;;;;5015653;28;20049;-68
2020/12/09 01:47:37;;;;;;;49.80;29.25;;;0.30;98.00;;;;;;5014957;28;20116;-70
2020/12/09 01:50:03;;;;;;;50.45;28.98;;;0.30;98.00;;;;;;5014824;28;20446;-69
2020/12/09 01:52:29;;;;;;;39.67;24.50;;;0.30;98.00;;;;;;5015984;28;20038;-69
2020/12/09 01:54:55;;;;;;;49.60;27.92;;;0.40;98.00;;;;;;5009276;28;20157;-69
2020/12/09 01:57:22;;;;;;;56.55;30.52;;;0.40;98.00;;;;;;5011944;28;20108;-69
2020/12/09 01:59:48;;;;;;;61.17;30.80;;;0.30;98.00;;;;;;5016282;28;20018;-69
2020/12/09 02:02:15;;;;;;;47.40;29.73;;;0.30;98.00;;;;;;5013742;28;20363;-69
2020/12/09 02:04:41;;;;;;;49.08;28.55;;;0.30;98.00;;;;;;5008007;28;20030;-70
2020/12/09 02:07:07;;;;;;;49.78;29.00;;;0.30;98.00;;;;;;5016088;28;20044;-69
2020/12/09 02:09:33;;;;;;;52.45;29.45;;;0.30;98.00;;;;;;5027660;28;20018;-69
2020/12/09 02:12:02;;;;;;;54.80;29.35;;;0.30;98.00;;;;;;5016503;28;20370;-69
2020/12/09 02:14:28;;;;;;;56.83;31.75;;;0.20;98.00;;;;;;5009022;28;20319;-70
2020/12/09 02:16:56;;;;;;;54.97;30.58;;;0.20;98.00;;;;;;5013840;28;20038;-69
2020/12/09 02:19:24;;;;;;;53.60;28.75;;;0.20;98.00;;;;;;5016020;28;20059;-69
2020/12/09 02:21:50;;;;;;;48.30;27.27;;;0.20;98.00;;;;;;5013068;28;20037;-70
2020/12/09 02:24:16;;;;;;;52.42;29.30;;;0.20;98.00;;;;;;5009162;28;20091;-69
2020/12/09 02:26:48;;;;;;;49.95;30.00;;;0.30;98.00;;;;;;5011430;28;20440;-70
2020/12/09 02:29:14;;;;;;;49.42;28.42;;;0.40;98.00;;;;;;5009645;28;20032;-69
2020/12/09 02:31:39;;;;;;;55.65;30.45;;;0.40;98.00;;;;;;5009592;28;20030;-70
2020/12/09 02:34:06;;;;;;;49.05;26.83;;;0.50;98.00;;;;;;5010555;28;20038;-69
2020/12/09 02:36:32;;;;;;;50.80;27.83;;;0.50;98.00;;;;;;5010566;28;20026;-70
2020/12/09 02:38:58;;;;;;;47.78;27.70;;;0.50;98.00;;;;;;5010119;28;20430;-69
2020/12/09 02:41:24;;;;;;;53.63;30.23;;;0.40;98.00;;;;;;5011370;28;20487;-69
2020/12/09 02:43:50;;;;;;;51.60;28.52;;;0.40;98.00;;;;;;5022567;28;20075;-69
2020/12/09 02:46:15;;;;;;;43.88;26.77;;;0.30;98.00;;;;;;5018585;28;20109;-69
2020/12/09 02:48:41;;;;;;;46.28;25.88;;;0.30;98.00;;;;;;5025777;28;20088;-68
2020/12/09 02:51:06;;;;;;;48.45;28.17;;;0.30;98.00;;;;;;5020077;28;20033;-69
2020/12/09 02:53:32;;;;;;;45.83;26.23;;;0.30;98.00;;;;;;5003917;28;20072;-69
2020/12/09 02:56:01;;;;;;;47.10;26.67;;;0.30;98.00;;;;;;5017589;28;20030;-69
2020/12/09 02:58:28;;;;;;;45.20;26.70;;;0.30;98.00;;;;;;5026050;28;20091;-70
2020/12/09 03:00:54;;;;;;;48.63;27.48;;;0.30;98.00;;;;;;5016255;28;20136;-69
2020/12/09 03:03:20;;;;;;;42.00;24.83;;;0.30;98.00;;;;;;5017561;28;20028;-68
2020/12/09 03:05:46;;;;;;;43.58;25.65;;;0.30;98.00;;;;;;5018432;28;20026;-68
2020/12/09 03:08:13;;;;;;;44.13;25.17;;;0.30;98.00;;;;;;5022650;28;20091;-69
2020/12/09 03:10:39;;;;;;;46.60;27.38;;;0.40;98.00;;;;;;5017861;28;20454;-69
2020/12/09 03:13:07;;;;;;;57.63;29.17;;;0.40;98.00;;;;;;5013296;28;20038;-69
2020/12/09 03:15:36;;;;;;;52.20;28.60;;;0.40;98.00;;;;;;5017158;28;20029;-69
2020/12/09 03:18:01;;;;;;;52.33;27.98;;;0.30;98.00;;;;;;5025246;28;20032;-69
2020/12/09 03:20:30;;;;;;;48.90;26.00;;;0.30;98.00;;;;;;5027000;28;20331;-69
2020/12/09 03:22:55;;;;;;;49.10;27.30;;;0.30;98.00;;;;;;5005493;28;20342;-69
2020/12/09 03:25:21;;;;;;;48.75;26.67;;;0.40;98.00;;;;;;5020055;28;20038;-68
2020/12/09 03:27:47;;;;;;;40.67;25.05;;;0.40;98.00;;;;;;5012823;28;20017;-69
2020/12/09 03:30:12;;;;;;;43.42;25.80;;;0.40;98.00;;;;;;5025462;28;20292;-67
2020/12/09 03:32:38;;;;;;;39.25;24.23;;;0.40;98.00;;;;;;5017959;28;20021;-68
2020/12/09 03:35:10;;;;;;;40.67;24.75;;;0.50;98.00;;;;;;5027983;28;20414;-69
2020/12/09 03:37:38;;;;;;;41.45;24.70;;;0.50;98.00;;;;;;5019634;28;20100;-69
2020/12/09 03:40:04;;;;;;;48.30;25.70;;;0.50;98.00;;;;;;5022609;28;20435;-70
2020/12/09 03:42:32;;;;;;;45.00;25.77;;;0.50;98.00;;;;;;5012240;28;20057;-69
2020/12/09 03:44:58;;;;;;;43.08;24.83;;;0.50;98.00;;;;;;5022521;28;20554;-70
2020/12/09 03:47:24;;;;;;;43.03;24.52;;;0.40;98.00;;;;;;5017211;28;20124;-69
2020/12/09 03:49:49;;;;;;;43.28;24.20;;;0.40;98.00;;;;;;5017734;28;20028;-70
2020/12/09 03:52:15;;;;;;;48.90;26.10;;;0.40;98.00;;;;;;5018074;28;20026;-69
2020/12/09 03:54:40;;;;;;;48.22;25.23;;;0.40;98.00;;;;;;5026541;28;20029;-69
2020/12/09 03:57:06;;;;;;;48.25;24.92;;;0.40;98.00;;;;;;5021118;28;20037;-70
2020/12/09 03:59:32;;;;;;;52.45;26.98;;;0.30;98.00;;;;;;5026752;28;20030;-69
2020/12/09 04:01:57;;;;;;;43.03;25.48;;;0.30;98.00;;;;;;5021945;28;20330;-70
2020/12/09 04:04:23;;;;;;;45.45;25.20;;;0.30;98.00;;;;;;5018231;28;20034;-70
2020/12/09 04:06:48;;;;;;;45.38;26.75;;;0.30;98.00;;;;;;5024708;28;20032;-69
2020/12/09 04:09:17;;;;;;;50.03;25.33;;;0.30;98.00;;;;;;5026711;28;20032;-70
2020/12/09 04:11:43;;;;;;;38.95;23.25;;;0.30;98.00;;;;;;5017865;28;20088;-69
2020/12/09 04:14:08;;;;;;;43.63;25.45;;;0.30;98.00;;;;;;5018882;28;20426;-69
2020/12/09 04:16:34;;;;;;;42.38;25.55;;;0.40;98.00;;;;;;5020286;28;20322;-71
2020/12/09 04:19:00;;;;;;;40.92;24.52;;;0.40;98.00;;;;;;5020936;28;20444;-69
2020/12/09 04:21:25;;;;;;;39.78;24.60;;;0.40;98.00;;;;;;5018592;28;20025;-69
2020/12/09 04:23:51;;;;;;;55.15;25.40;;;0.40;98.00;;;;;;5025298;28;20044;-69
2020/12/09 04:26:17;;;;;;;40.53;23.38;;;0.40;98.00;;;;;;5019353;28;20423;-70
2020/12/09 04:28:42;;;;;;;48.05;26.55;;;0.40;98.00;;;;;;5024717;28;20037;-70
2020/12/09 04:31:08;;;;;;;45.15;24.73;;;0.40;98.00;;;;;;5016880;28;20045;-69
2020/12/09 04:33:34;;;;;;;54.83;27.40;;;0.50;98.00;;;;;;5022158;28;20029;-69
2020/12/09 04:36:03;;;;;;;43.10;26.20;;;0.50;98.00;;;;;;5022555;28;20029;-69
2020/12/09 04:38:29;;;;;;;46.33;26.92;;;0.40;98.00;;;;;;5012690;28;20423;-69
2020/12/09 04:40:54;;;;;;;47.35;26.88;;;0.30;98.00;;;;;;5017978;28;20036;-70
2020/12/09 04:43:20;;;;;;;48.28;28.63;;;0.30;98.00;;;;;;5034084;28;20434;-69
2020/12/09 04:45:46;;;;;;;61.85;32.05;;;0.30;98.00;;;;;;5014130;28;20416;-69
2020/12/09 04:48:13;;;;;;;52.45;29.92;;;0.30;98.00;;;;;;5023196;28;20056;-70
2020/12/09 04:51:09;;;;;;;45.65;25.90;;;0.30;98.00;;;;;;5013741;28;20029;-70
2020/12/09 04:53:34;;;;;;;42.75;26.33;;;0.30;98.00;;;;;;5022261;28;20048;-69
2020/12/09 04:56:03;;;;;;;54.33;28.98;;;0.40;98.00;;;;;;5016666;28;20026;-69
2020/12/09 04:58:55;;;;;;;48.40;28.63;;;0.30;98.00;;;;;;5023165;28;20104;-69
2020/12/09 05:01:21;;;;;;;50.35;27.85;;;0.40;98.00;;;;;;5013332;28;20029;-70
2020/12/09 05:03:49;;;;;;;44.38;26.60;;;0.40;98.00;;;;;;5015458;28;20113;-69
2020/12/09 05:06:19;;;;;;;48.55;26.45;;;0.40;98.00;;;;;;5016360;28;20439;-69
2020/12/09 05:08:53;;;;;;;48.30;26.60;;;0.40;98.00;;;;;;5009116;28;20025;-69
2020/12/09 05:11:27;;;;;;;52.47;29.77;;;0.40;98.00;;;;;;5022655;28;20030;-69
2020/12/09 05:13:58;;;;;;;50.92;28.52;;;0.40;98.00;;;;;;5021209;28;20060;-69
2020/12/09 05:16:25;;;;;;;59.67;34.05;;;0.40;98.00;;;;;;5022511;28;20497;-70
2020/12/09 05:19:00;;;;;;;56.45;32.85;;;0.40;98.00;;;;;;5012258;28;20109;-69
2020/12/09 05:21:26;;;;;;;79.65;41.00;;;0.40;98.00;;;;;;5018837;28;20025;-70
2020/12/09 05:23:53;;;;;;;82.35;45.38;;;0.40;98.00;;;;;;5022913;28;20116;-70
2020/12/09 05:26:33;;;;;;;97.60;52.17;;;0.50;98.00;;;;;;5023413;28;20076;-69
2020/12/09 05:29:19;;;;;;;80.90;47.00;;;0.50;98.00;;;;;;5011371;28;20026;-70
2020/12/09 05:31:49;;;;;;;74.50;42.33;;;0.50;98.00;;;;;;5011374;28;20026;-70
2020/12/09 05:34:21;;;;;;;84.28;44.85;;;0.40;98.00;;;;;;5017167;28;20026;-69
2020/12/09 05:36:47;;;;;;;80.13;43.22;;;0.40;98.00;;;;;;5036340;28;20026;-69
2020/12/09 05:39:14;;;;;;;76.20;42.72;;;0.40;98.00;;;;;;5012731;28;20022;-70
2020/12/09 05:41:40;;;;;;;86.03;46.08;;;0.50;98.00;;;;;;5029016;28;20033;-70
2020/12/09 05:44:06;;;;;;;84.07;44.40;;;0.50;98.00;;;;;;5018310;28;20038;-70
2020/12/09 05:46:32;;;;;;;76.93;41.60;;;0.40;98.00;;;;;;5014558;28;20323;-69
2020/12/09 05:48:58;;;;;;;82.57;41.83;;;0.40;98.00;;;;;;5015210;28;20038;-70
2020/12/09 05:51:24;;;;;;;87.35;42.80;;;0.50;98.00;;;;;;5016367;28;20026;-69
2020/12/09 05:53:50;;;;;;;102.35;46.78;;;0.40;98.00;;;;;;5016145;28;20316;-69
2020/12/09 05:56:22;;;;;;;101.50;46.58;;;0.40;98.00;;;;;;5013757;28;20033;-68
2020/12/09 05:58:49;;;;;;;102.93;47.20;;;0.40;98.00;;;;;;5019320;28;20419;-69
2020/12/09 06:01:16;;;;;;;96.63;46.70;;;0.40;98.00;;;;;;5019390;28;20033;-69
2020/12/09 06:03:54;;;;;;;79.95;40.45;;;0.40;98.00;;;;;;5016109;28;20071;-69
2020/12/09 06:06:28;;;;;;;86.55;39.80;;;0.40;98.00;;;;;;5017506;28;20105;-69
2020/12/09 06:08:59;;;;;;;86.70;42.75;;;0.40;98.00;;;;;;5015181;28;20053;-69
2020/12/09 06:11:33;;;;;;;113.93;46.50;;;0.40;98.00;;;;;;5014513;28;20026;-69
2020/12/09 06:13:59;;;;;;;82.45;42.75;;;0.40;98.00;;;;;;5023862;28;20040;-70
2020/12/09 06:16:25;;;;;;;106.28;44.10;;;0.40;98.00;;;;;;5016698;28;20034;-69
2020/12/09 06:18:58;;;;;;;102.35;44.58;;;0.40;98.00;;;;;;5022067;28;20030;-69
2020/12/09 06:21:24;;;;;;;114.00;47.72;;;0.40;98.00;;;;;;5016963;28;20075;-69
2020/12/09 06:23:53;;;;;;;127.60;52.35;;;0.40;98.00;;;;;;5015754;28;20315;-68
2020/12/09 06:26:19;;;;;;;76.15;41.40;;;0.40;98.00;;;;;;5027272;28;20044;-69
2020/12/09 06:28:47;;;;;;;102.40;42.33;;;0.40;98.00;;;;;;5020200;28;20033;-68
2020/12/09 06:31:13;;;;;;;101.80;40.38;;;0.40;98.00;;;;;;5013312;28;20034;-70
2020/12/09 06:33:44;;;;;;;86.30;39.53;;;0.30;98.00;;;;;;5011203;28;20038;-71
2020/12/09 06:36:36;;;;;;;133.63;55.53;;;0.30;98.00;;;;;;5011090;28;20123;-72
2020/12/09 06:39:16;;;;;;;137.32;48.25;;;0.30;98.00;;;;;;5014119;28;20509;-70
2020/12/09 06:41:57;;;;;;;79.05;43.08;;;0.30;98.00;;;;;;5029417;28;20029;-70
2020/12/09 06:44:28;;;;;;;154.20;51.55;;;0.30;98.00;;;;;;5023741;28;20034;-70
2020/12/09 06:46:54;;;;;;;116.63;43.40;;;0.30;98.00;;;;;;5014561;28;20347;-70
2020/12/09 06:49:41;;;;;;;82.15;41.70;;;0.30;98.00;;;;;;5019886;28;20030;-70
2020/12/09 06:52:12;;;;;;;111.15;52.40;;;0.30;98.00;;;;;;5013810;28;20029;-70
2020/12/09 06:54:48;;;;;;;84.22;43.53;;;0.30;98.00;;;;;;5015495;28;20108;-70
2020/12/09 06:57:35;;;;;;;103.35;46.53;;;0.30;98.00;;;;;;5021035;28;20033;-71
2020/12/09 07:00:14;;;;;;;73.80;37.05;;;0.30;98.00;;;;;;5000733;28;20084;-70
2020/12/09 07:02:43;;;;;;;64.45;36.63;;;0.30;98.00;;;;;;5023058;28;20029;-69
2020/12/09 07:05:14;;;;;;;94.88;39.85;;;0.40;98.00;;;;;;5018408;28;20109;-69
2020/12/09 07:07:45;;;;;;;133.15;40.30;;;0.30;98.00;;;;;;5029028;28;20121;-69
2020/12/09 07:10:18;;;;;;;134.55;41.67;;;0.30;98.00;;;;;;5014574;28;20430;-70
2020/12/09 07:12:44;;;;;;;179.47;40.57;;;0.30;98.00;;;;;;5030036;28;20071;-70
2020/12/09 07:15:10;;;;;;;79.35;35.20;;;0.30;98.00;;;;;;5018662;28;20029;-70
2020/12/09 07:17:36;;;;;;;163.75;48.83;;;0.30;98.00;;;;;;5024282;28;20025;-69
2020/12/09 07:20:03;;;;;;;197.18;39.03;;;0.30;98.00;;;;;;5018653;28;20026;-70
2020/12/09 07:22:29;;;;;;;98.82;38.90;;;0.30;98.00;;;;;;5022660;28;20033;-70
2020/12/09 07:24:55;;;;;;;66.45;32.97;;;0.40;98.00;;;;;;5017227;28;20315;-70
2020/12/09 07:27:24;;;;;;;82.57;34.53;;;0.30;98.00;;;;;;5015994;28;20026;-70
2020/12/09 07:29:56;;;;;;;64.93;33.63;;;0.40;98.00;;;;;;5010871;28;20446;-70
2020/12/09 07:32:23;;;;;;;97.80;42.92;;;0.30;98.00;;;;;;5006720;28;20023;-70
2020/12/09 07:34:56;;;;;;;81.00;38.20;;;0.30;98.00;;;;;;5029140;28;20307;-71
2020/12/09 07:37:31;;;;;;;102.68;41.42;;;0.40;98.00;;;;;;5002664;28;20418;-70
2020/12/09 07:40:00;;;;;;;83.78;38.85;;;0.40;98.00;;;;;;5014700;28;20105;-70
2020/12/09 07:42:26;;;;;;;114.18;37.92;;;0.40;98.00;;;;;;5022554;28;20021;-71
2020/12/09 07:44:53;;;;;;;77.88;37.10;;;0.40;98.00;;;;;;5030526;28;20104;-70
2020/12/09 07:47:29;;;;;;;95.30;39.85;;;0.40;98.00;;;;;;5016712;28;20128;-70
2020/12/09 07:50:05;;;;;;;84.38;37.00;;;0.40;98.00;;;;;;5013377;28;20445;-71
2020/12/09 07:52:36;;;;;;;129.65;38.42;;;0.50;98.00;;;;;;5027981;28;20560;-70
2020/12/09 07:55:11;;;;;;;77.72;36.65;;;0.50;98.00;;;;;;5030908;28;20036;-71
2020/12/09 07:57:37;;;;;;;104.78;39.03;;;0.40;98.00;;;;;;5016115;28;20026;-70
2020/12/09 08:00:12;;;;;;;79.72;33.13;;;0.50;98.00;;;;;;5013874;28;20054;-71
2020/12/09 08:02:39;;;;;;;90.20;27.13;;;0.50;98.00;;;;;;5016873;28;20037;-71
2020/12/09 08:05:18;;;;;;;54.85;29.90;;;0.60;98.00;;;;;;5029077;28;20167;-71
2020/12/09 08:07:47;;;;;;;79.00;33.28;;;0.50;98.00;;;;;;5030979;28;20029;-72
2020/12/09 08:10:13;;;;;;;185.00;34.28;;;0.60;98.00;;;;;;5022643;28;20136;-71
2020/12/09 08:12:42;;;;;;;61.50;30.83;;;0.50;98.00;;;;;;5019050;28;20117;-72
2020/12/09 08:15:09;;;;;;;79.18;25.45;;;0.50;98.00;;;;;;5026091;28;20337;-72
2020/12/09 08:17:35;;;;;;;48.10;25.50;;;0.50;98.00;;;;;;5026289;28;20331;-72
2020/12/09 08:20:08;;;;;;;156.77;26.60;;;0.50;98.00;;;;;;5021896;28;20438;-71
2020/12/09 08:23:00;;;;;;;87.60;23.67;;;0.50;98.00;;;;;;5020733;28;20123;-71
2020/12/09 08:25:31;;;;;;;170.25;32.17;;;0.50;98.00;;;;;;5009514;28;20061;-72
2020/12/09 08:28:07;;;;;;;83.00;35.88;;;0.50;98.00;;;;;;5025121;28;20032;-71
2020/12/09 08:30:34;;;;;;;78.70;29.83;;;0.60;98.00;;;;;;5020409;28;20106;-71
2020/12/09 08:33:12;;;;;;;73.07;30.50;;;0.60;98.00;;;;;;5018084;28;20049;-72
2020/12/09 08:36:06;;;;;;;89.72;33.38;;;0.60;98.00;;;;;;5029714;28;20018;-71
2020/12/09 08:38:42;;;;;;;101.40;35.13;;;0.60;98.00;;;;;;5019484;28;20080;-72
2020/12/09 08:41:13;;;;;;;94.57;29.40;;;0.60;98.00;;;;;;5021050;28;20029;-71
2020/12/09 08:43:43;;;;;;;65.72;27.58;;;0.60;98.00;;;;;;5023929;28;20022;-71
2020/12/09 08:46:10;;;;;;;95.25;29.80;;;0.60;98.00;;;;;;5025356;28;20457;-71
2020/12/09 08:48:37;;;;;;;80.65;27.77;;;0.60;98.00;;;;;;5008131;28;20050;-72
2020/12/09 08:51:07;;;;;;;133.32;36.08;;;0.60;98.00;;;;;;5031150;28;20025;-72
2020/12/09 08:53:33;;;;;;;286.13;82.18;;;0.60;98.00;;;;;;5031599;28;20029;-72
2020/12/09 08:55:59;;;;;;;104.88;43.28;;;0.60;98.00;;;;;;5022541;28;20026;-70
2020/12/09 08:58:24;;;;;;;168.75;40.95;;;0.70;98.00;;;;;;5008203;28;20102;-72
2020/12/09 09:00:50;;;;;;;72.63;35.55;;;0.70;98.00;;;;;;5032053;28;20187;-72
2020/12/09 09:03:19;;;;;;;76.03;32.85;;;0.70;98.00;;;;;;5020054;28;20025;-71
2020/12/09 09:05:46;;;;;;;84.18;42.97;;;0.70;98.00;;;;;;5024549;28;20025;-70
2020/12/09 09:08:15;;;;;;;74.25;42.88;;;0.80;98.00;;;;;;5025807;28;20029;-70
2020/12/09 09:10:42;;;;;;;147.27;49.58;;;0.80;98.00;;;;;;5019878;28;20049;-70
2020/12/09 09:13:09;;;;;;;187.15;55.03;;;0.80;98.00;;;;;;5033601;28;20095;-70
2020/12/09 09:15:35;;;;;;;137.70;43.97;;;0.70;98.00;;;;;;5016796;28;20053;-70
2020/12/09 09:18:02;;;;;;;112.18;48.20;;;0.70;98.00;;;;;;5026260;28;20114;-69
2020/12/09 09:20:32;;;;;;;89.82;43.78;;;0.80;98.00;;;;;;5026913;28;20032;-69
2020/12/09 09:22:57;;;;;;;140.00;38.83;;;0.70;98.00;;;;;;5005324;28;20446;-69
2020/12/09 09:25:24;;;;;;;123.38;40.13;;;0.80;98.00;;;;;;5033234;28;20030;-72
2020/12/09 09:27:50;;;;;;;94.57;40.42;;;0.70;98.00;;;;;;5024084;28;20026;-71
2020/12/09 09:30:17;;;;;;;135.02;33.40;;;0.80;98.00;;;;;;5025452;28;20048;-71
2020/12/09 09:32:43;;;;;;;115.70;33.25;;;0.80;98.00;;;;;;5014255;28;20026;-71
2020/12/09 09:35:08;;;;;;;149.30;33.15;;;0.80;98.00;;;;;;5027160;28;20077;-71
2020/12/09 09:37:34;;;;;;;113.45;37.10;;;0.80;98.00;;;;;;5015162;28;20101;-72
2020/12/09 09:40:00;;;;;;;124.85;36.05;;;0.80;98.00;;;;;;5017411;28;20080;-71
2020/12/09 09:42:26;;;;;;;77.35;34.53;;;0.90;98.00;;;;;;5028952;28;20025;-72
2020/12/09 09:44:52;;;;;;;72.80;35.17;;;0.90;98.00;;;;;;5014799;28;20414;-72
2020/12/09 09:47:18;;;;;;;92.40;32.53;;;1.00;98.00;;;;;;5029277;28;20450;-71
2020/12/09 09:49:44;;;;;;;82.88;30.98;;;0.90;98.00;;;;;;5029689;28;20022;-72
2020/12/09 09:52:13;;;;;;;130.75;32.45;;;0.90;98.00;;;;;;5026641;28;20028;-72
2020/12/09 09:54:39;;;;;;;208.43;32.13;;;0.80;98.00;;;;;;5021890;28;20434;-72
2020/12/09 09:57:04;;;;;;;105.53;32.97;;;0.90;98.00;;;;;;5020698;28;20068;-72
2020/12/09 09:59:30;;;;;;;62.72;31.17;;;0.90;98.00;;;;;;5031536;28;20033;-72
2020/12/09 10:01:56;;;;;;;69.80;34.78;;;0.90;98.00;;;;;;5023464;28;20371;-72
2020/12/09 10:04:23;;;;;;;48.92;26.88;;;0.90;98.00;;;;;;5023022;28;20304;-72
2020/12/09 10:06:52;;;;;;;59.72;30.05;;;0.80;98.00;;;;;;5026225;28;20025;-72
2020/12/09 10:09:18;;;;;;;63.55;30.13;;;0.80;98.00;;;;;;5031342;28;20025;-72
2020/12/09 10:11:45;;;;;;;56.60;31.27;;;0.90;98.00;;;;;;5022170;28;20052;-71
2020/12/09 10:14:10;;;;;;;52.42;29.95;;;0.80;98.00;;;;;;5025536;28;20092;-70
2020/12/09 10:16:39;;;;;;;62.25;32.63;;;0.80;98.00;;;;;;5026901;28;20037;-72
2020/12/09 10:19:05;;;;;;;57.25;32.83;;;0.80;98.00;;;;;;5018498;28;20415;-70
2020/12/09 10:21:32;;;;;;;76.60;32.35;;;0.80;98.00;;;;;;5021209;28;20033;-70
2020/12/09 10:24:00;;;;;;;69.60;37.80;;;0.90;98.00;;;;;;5027197;28;20586;-70
2020/12/09 10:26:33;;;;;;;73.40;39.22;;;0.80;98.00;;;;;;5016417;28;20057;-70
2020/12/09 10:29:01;;;;;;;61.78;33.83;;;0.80;98.00;;;;;;5025958;28;20024;-71
2020/12/09 10:31:54;;;;;;;68.22;36.67;;;0.90;98.00;;;;;;5014071;28;20479;-71
2020/12/09 10:34:20;;;;;;;62.05;31.85;;;0.90;98.00;;;;;;5023917;28;20330;-72
2020/12/09 10:36:51;;;;;;;68.15;30.95;;;0.90;98.00;;;;;;5015635;28;20030;-72
2020/12/09 10:39:20;;;;;;;49.97;30.38;;;0.90;98.00;;;;;;5025086;28;20096;-71
2020/12/09 10:41:48;;;;;;;50.42;28.48;;;0.90;98.00;;;;;;5028721;28;20461;-72
2020/12/09 10:44:13;;;;;;;63.13;33.03;;;1.00;98.00;;;;;;5012110;28;20060;-72
2020/12/09 10:46:41;;;;;;;58.08;31.73;;;1.00;98.00;;;;;;5023219;28;20108;-72
2020/12/09 10:49:09;;;;;;;58.58;32.42;;;1.10;98.00;;;;;;5018610;28;20042;-72
2020/12/09 10:51:35;;;;;;;49.85;28.88;;;1.10;98.00;;;;;;5030104;28;20100;-72
2020/12/09 10:54:01;;;;;;;50.33;28.27;;;1.20;98.00;;;;;;5014996;28;20032;-72
2020/12/09 10:56:29;;;;;;;52.08;28.73;;;1.20;98.00;;;;;;5024142;28;20030;-71
2020/12/09 10:58:56;;;;;;;94.63;52.65;;;1.20;98.00;;;;;;5020520;28;20029;-72
2020/12/09 11:01:24;;;;;;;61.22;36.00;;;1.20;98.00;;;;;;5014701;28;20448;-70
2020/12/09 11:03:50;;;;;;;55.15;33.35;;;1.20;98.00;;;;;;5015647;28;20034;-71
2020/12/09 11:06:16;;;;;;;52.80;28.17;;;1.10;98.00;;;;;;5012259;28;20033;-70
2020/12/09 11:08:42;;;;;;;49.35;31.70;;;1.10;98.00;;;;;;5029890;28;20097;-71
2020/12/09 11:11:10;;;;;;;50.30;31.25;;;1.20;98.00;;;;;;5018553;28;20030;-71
2020/12/09 11:13:36;;;;;;;52.75;31.17;;;1.20;98.00;;;;;;5028920;28;20028;-72
2020/12/09 11:16:02;;;;;;;50.08;28.75;;;1.30;98.00;;;;;;5018037;28;20030;-72
2020/12/09 11:18:28;;;;;;;44.80;26.10;;;1.20;98.00;;;;;;5027375;28;20026;-71
2020/12/09 11:20:53;;;;;;;57.45;35.10;;;1.20;98.00;;;;;;5018723;28;20026;-70
2020/12/09 11:23:19;;;;;;;52.53;30.33;;;1.20;98.00;;;;;;5030264;28;20022;-71
2020/12/09 11:25:44;;;;;;;43.60;26.05;;;1.30;98.00;;;;;;5014788;28;20371;-71
2020/12/09 11:28:10;;;;;;;51.78;29.65;;;1.20;98.00;;;;;;5024115;28;20036;-70
2020/12/09 11:30:36;;;;;;;51.65;28.85;;;1.20;98.00;;;;;;5031890;28;20032;-71
2020/12/09 11:33:02;;;;;;;50.53;30.60;;;1.30;98.00;;;;;;5017978;28;20026;-70
2020/12/09 11:35:27;;;;;;;55.40;31.08;;;1.30;98.00;;;;;;5030457;28;20472;-71
2020/12/09 11:37:55;;;;;;;62.53;36.97;;;1.40;98.00;;;;;;5020844;28;20598;-72
2020/12/09 11:40:25;;;;;;;53.22;31.27;;;1.40;98.00;;;;;;5023208;28;20133;-71
2020/12/09 11:42:51;;;;;;;58.03;32.92;;;1.40;98.00;;;;;;5028589;28;20227;-70
2020/12/09 11:45:16;;;;;;;67.63;36.67;;;1.40;98.00;;;;;;5030108;28;20522;-71
2020/12/09 11:47:45;;;;;;;60.90;35.40;;;1.40;98.00;;;;;;5009588;28;20133;-71
2020/12/09 11:50:10;;;;;;;84.25;36.20;;;1.50;98.00;;;;;;5012333;28;20161;-71
2020/12/09 11:52:36;;;;;;;86.43;33.17;;;1.50;98.00;;;;;;5018293;28;20144;-71
2020/12/09 11:55:02;;;;;;;65.80;32.05;;;1.30;98.00;;;;;;5031228;28;20026;-71
2020/12/09 11:57:27;;;;;;;61.33;30.70;;;1.40;98.00;;;;;;5014762;28;20026;-71
2020/12/09 11:59:53;;;;;;;45.35;27.73;;;1.40;98.00;;;;;;5028251;28;20085;-71
2020/12/09 12:02:19;;;;;;;45.42;28.60;;;1.50;98.00;;;;;;5010725;28;20026;-71
2020/12/09 12:04:44;;;;;;;42.13;26.55;;;1.50;98.00;;;;;;5012098;28;20026;-71
2020/12/09 12:07:10;;;;;;;52.92;31.60;;;1.40;98.00;;;;;;5014783;28;20037;-69
2020/12/09 12:09:36;;;;;;;54.03;32.03;;;1.50;98.00;;;;;;5014600;28;20053;-70
2020/12/09 12:12:01;;;;;;;65.75;31.85;;;1.50;98.00;;;;;;5011804;28;20355;-70
2020/12/09 12:14:27;;;;;;;43.28;26.13;;;1.60;98.00;;;;;;5026663;28;20464;-69
2020/12/09 12:16:52;;;;;;;44.63;26.45;;;1.50;98.00;;;;;;5022878;28;20415;-70
2020/12/09 12:19:19;;;;;;;53.58;31.50;;;1.50;98.00;;;;;;5031348;28;20414;-72
2020/12/09 12:21:51;;;;;;;47.28;31.35;;;1.40;98.00;;;;;;5025758;28;20026;-72
2020/12/09 12:24:17;;;;;;;56.70;37.47;;;1.40;98.00;;;;;;5023287;28;20033;-71
2020/12/09 12:26:43;;;;;;;77.60;46.42;;;1.30;98.00;;;;;;5015560;28;20029;-73
2020/12/09 12:29:09;;;;;;;97.75;53.42;;;1.30;98.00;;;;;;5015134;28;20431;-72
2020/12/09 12:31:34;;;;;;;72.95;44.85;;;1.30;98.00;;;;;;5024105;28;20029;-72
2020/12/09 12:34:00;;;;;;;64.13;40.85;;;1.20;98.00;;;;;;5028861;28;20118;-71
2020/12/09 12:36:26;;;;;;;57.08;35.33;;;1.20;98.00;;;;;;5029826;28;20064;-70
2020/12/09 12:38:51;;;;;;;61.38;37.88;;;1.20;98.00;;;;;;5025692;28;20326;-71
2020/12/09 12:41:20;;;;;;;67.75;42.08;;;1.20;98.00;;;;;;5019534;28;20315;-71